sensor_id;sensor_type;location;lat;lon;timestamp;pressure;altitude;pressure_sealevel;temperature;humidity
37066;BME280;22981;43.080;25.550;2023-08-12T00:01:18;100038.08;;;18.43;68.81
37066;BME280;22981;43.080;25.550;2023-08-12T00:03:48;100035.91;;;18.42;68.81
37066;BME280;22981;43.080;25.550;2023-08-12T00:06:15;100032.39;;;18.42;68.76
37066;BME280;22981;43.080;25.550;2023-08-12T00:08:43;100028.56;;;18.40;68.74
37066;BME280;22981;43.080;25.550;2023-08-12T00:11:10;100032.89;;;18.39;68.78
37066;BME280;22981;43.080;25.550;2023-08-12T00:13:38;100036.96;;;18.39;68.80
37066;BME280;22981;43.080;25.550;2023-08-12T00:16:05;100028.02;;;18.38;68.76
37066;BME280;22981;43.080;25.550;2023-08-12T00:18:33;100033.67;;;18.37;68.71
37066;BME280;22981;43.080;25.550;2023-08-12T00:21:07;100028.52;;;18.35;68.79
37066;BME280;22981;43.080;25.550;2023-08-12T00:23:41;100024.99;;;18.35;68.85
37066;BME280;22981;43.080;25.550;2023-08-12T00:26:10;100021.42;;;18.29;68.90
37066;BME280;22981;43.080;25.550;2023-08-12T00:28:38;100026.77;;;18.24;68.90
37066;BME280;22981;43.080;25.550;2023-08-12T00:31:05;100023.47;;;18.17;68.97
37066;BME280;22981;43.080;25.550;2023-08-12T00:33:33;100022.34;;;18.13;69.09
37066;BME280;22981;43.080;25.550;2023-08-12T00:36:01;100019.87;;;18.11;69.17
37066;BME280;22981;43.080;25.550;2023-08-12T00:38:28;100028.84;;;18.12;69.21
37066;BME280;22981;43.080;25.550;2023-08-12T00:40:56;100017.47;;;18.12;69.15
37066;BME280;22981;43.080;25.550;2023-08-12T00:43:24;100023.42;;;18.12;69.23
37066;BME280;22981;43.080;25.550;2023-08-12T00:45:52;100026.41;;;18.13;69.19
37066;BME280;22981;43.080;25.550;2023-08-12T00:48:20;100030.20;;;18.12;69.22
37066;BME280;22981;43.080;25.550;2023-08-12T00:50:48;100022.58;;;18.11;69.22
37066;BME280;22981;43.080;25.550;2023-08-12T00:53:16;100024.74;;;18.09;69.17
37066;BME280;22981;43.080;25.550;2023-08-12T00:55:44;100024.16;;;18.07;69.18
37066;BME280;22981;43.080;25.550;2023-08-12T00:58:12;100020.91;;;18.05;69.26
37066;BME280;22981;43.080;25.550;2023-08-12T01:00:40;100023.06;;;18.03;69.35
37066;BME280;22981;43.080;25.550;2023-08-12T01:03:08;100025.46;;;17.99;69.40
37066;BME280;22981;43.080;25.550;2023-08-12T01:05:36;100019.50;;;18.00;69.36
37066;BME280;22981;43.080;25.550;2023-08-12T01:08:04;100015.72;;;18.01;69.28
37066;BME280;22981;43.080;25.550;2023-08-12T01:10:33;100020.31;;;18.00;69.20
37066;BME280;22981;43.080;25.550;2023-08-12T01:13:27;100015.44;;;18.00;69.22
37066;BME280;22981;43.080;25.550;2023-08-12T01:15:56;100016.22;;;17.98;69.21
37066;BME280;22981;43.080;25.550;2023-08-12T01:18:24;100009.70;;;17.96;69.23
37066;BME280;22981;43.080;25.550;2023-08-12T01:20:53;100013.73;;;17.94;69.16
37066;BME280;22981;43.080;25.550;2023-08-12T01:23:21;100015.03;;;17.86;69.34
37066;BME280;22981;43.080;25.550;2023-08-12T01:25:49;100012.55;;;17.82;69.36
37066;BME280;22981;43.080;25.550;2023-08-12T01:28:16;100014.08;;;17.75;69.56
37066;BME280;22981;43.080;25.550;2023-08-12T01:30:54;100006.42;;;17.72;69.61
37066;BME280;22981;43.080;25.550;2023-08-12T01:33:24;100006.69;;;17.71;69.66
37066;BME280;22981;43.080;25.550;2023-08-12T01:35:54;100014.27;;;17.71;69.67
37066;BME280;22981;43.080;25.550;2023-08-12T01:38:23;100014.55;;;17.72;69.59
37066;BME280;22981;43.080;25.550;2023-08-12T01:40:52;100018.91;;;17.73;69.61
37066;BME280;22981;43.080;25.550;2023-08-12T01:43:21;100014.08;;;17.75;69.48
37066;BME280;22981;43.080;25.550;2023-08-12T01:45:49;100012.92;;;17.71;69.60
37066;BME280;22981;43.080;25.550;2023-08-12T01:48:16;100015.62;;;17.71;69.68
37066;BME280;22981;43.080;25.550;2023-08-12T01:50:46;100018.33;;;17.71;69.69
37066;BME280;22981;43.080;25.550;2023-08-12T01:53:14;100011.25;;;17.68;69.79
37066;BME280;22981;43.080;25.550;2023-08-12T01:55:43;100018.59;;;17.70;69.84
37066;BME280;22981;43.080;25.550;2023-08-12T01:58:11;100019.41;;;17.70;69.83
37066;BME280;22981;43.080;25.550;2023-08-12T02:00:39;100020.23;;;17.71;69.76
37066;BME280;22981;43.080;25.550;2023-08-12T02:03:07;100024.56;;;17.72;69.77
37066;BME280;22981;43.080;25.550;2023-08-12T02:05:34;100024.56;;;17.72;69.83
37066;BME280;22981;43.080;25.550;2023-08-12T02:08:04;100034.58;;;17.71;69.74
37066;BME280;22981;43.080;25.550;2023-08-12T02:10:32;100034.79;;;17.65;69.77
37066;BME280;22981;43.080;25.550;2023-08-12T02:12:59;100043.41;;;17.62;69.86
37066;BME280;22981;43.080;25.550;2023-08-12T02:15:28;100043.89;;;17.56;69.89
37066;BME280;22981;43.080;25.550;2023-08-12T02:17:55;100052.45;;;17.50;69.99
37066;BME280;22981;43.080;25.550;2023-08-12T02:20:23;100058.63;;;17.46;70.06
37066;BME280;22981;43.080;25.550;2023-08-12T02:22:50;100054.23;;;17.42;70.15
37066;BME280;22981;43.080;25.550;2023-08-12T02:25:18;100055.31;;;17.41;70.10
37066;BME280;22981;43.080;25.550;2023-08-12T02:27:45;100062.57;;;17.38;70.16
37066;BME280;22981;43.080;25.550;2023-08-12T02:30:13;100063.42;;;17.39;70.16
37066;BME280;22981;43.080;25.550;2023-08-12T02:32:41;100067.98;;;17.38;70.10
37066;BME280;22981;43.080;25.550;2023-08-12T02:35:09;100064.19;;;17.37;70.10
37066;BME280;22981;43.080;25.550;2023-08-12T02:37:37;100069.05;;;17.35;70.13
37066;BME280;22981;43.080;25.550;2023-08-12T02:40:05;100071.75;;;17.35;70.14
37066;BME280;22981;43.080;25.550;2023-08-12T02:42:33;100075.81;;;17.35;70.22
37066;BME280;22981;43.080;25.550;2023-08-12T02:45:01;100076.31;;;17.34;70.26
37066;BME280;22981;43.080;25.550;2023-08-12T02:47:29;100078.80;;;17.36;70.28
37066;BME280;22981;43.080;25.550;2023-08-12T02:49:56;100082.05;;;17.38;70.29
37066;BME280;22981;43.080;25.550;2023-08-12T02:52:24;100077.45;;;17.38;70.33
37066;BME280;22981;43.080;25.550;2023-08-12T02:54:51;100083.18;;;17.39;70.34
37066;BME280;22981;43.080;25.550;2023-08-12T02:57:19;100080.16;;;17.38;70.24
37066;BME280;22981;43.080;25.550;2023-08-12T02:59:47;100086.84;;;17.31;70.19
37066;BME280;22981;43.080;25.550;2023-08-12T03:02:14;100084.25;;;17.21;70.26
37066;BME280;22981;43.080;25.550;2023-08-12T03:04:42;100080.38;;;17.15;70.36
37066;BME280;22981;43.080;25.550;2023-08-12T03:07:10;100085.95;;;17.08;70.50
37066;BME280;22981;43.080;25.550;2023-08-12T03:09:37;100084.78;;;17.01;70.59
37066;BME280;22981;43.080;25.550;2023-08-12T03:12:05;100082.84;;;16.99;70.63
37066;BME280;22981;43.080;25.550;2023-08-12T03:14:34;100084.17;;;16.97;70.62
37066;BME280;22981;43.080;25.550;2023-08-12T03:17:01;100089.58;;;16.97;70.58
37066;BME280;22981;43.080;25.550;2023-08-12T03:19:30;100086.59;;;16.96;70.51
37066;BME280;22981;43.080;25.550;2023-08-12T03:21:57;100087.95;;;16.96;70.49
37066;BME280;22981;43.080;25.550;2023-08-12T03:24:25;100089.58;;;16.97;70.50
37066;BME280;22981;43.080;25.550;2023-08-12T03:26:52;100093.91;;;16.98;70.50
37066;BME280;22981;43.080;25.550;2023-08-12T03:29:20;100095.55;;;16.99;70.51
37066;BME280;22981;43.080;25.550;2023-08-12T03:31:48;100094.73;;;16.98;70.52
37066;BME280;22981;43.080;25.550;2023-08-12T03:34:15;100097.69;;;16.97;70.54
37066;BME280;22981;43.080;25.550;2023-08-12T03:36:43;100092.48;;;16.93;70.60
37066;BME280;22981;43.080;25.550;2023-08-12T03:39:12;100095.39;;;16.89;70.76
37066;BME280;22981;43.080;25.550;2023-08-12T03:41:40;100091.80;;;16.83;70.87
37066;BME280;22981;43.080;25.550;2023-08-12T03:44:07;100090.88;;;16.77;71.03
37066;BME280;22981;43.080;25.550;2023-08-12T03:46:35;100094.91;;;16.75;71.17
37066;BME280;22981;43.080;25.550;2023-08-12T03:49:02;100093.77;;;16.73;71.08
37066;BME280;22981;43.080;25.550;2023-08-12T03:51:30;100097.46;;;16.70;71.22
37066;BME280;22981;43.080;25.550;2023-08-12T03:53:58;100094.53;;;16.71;71.25
37066;BME280;22981;43.080;25.550;2023-08-12T03:56:25;100105.19;;;16.75;71.10
37066;BME280;22981;43.080;25.550;2023-08-12T03:58:53;100103.02;;;16.75;71.08
37066;BME280;22981;43.080;25.550;2023-08-12T04:01:20;100110.92;;;16.79;71.07
37066;BME280;22981;43.080;25.550;2023-08-12T04:03:48;100106.36;;;16.82;71.08
37066;BME280;22981;43.080;25.550;2023-08-12T04:06:16;100109.12;;;16.85;71.12
37066;BME280;22981;43.080;25.550;2023-08-12T04:08:43;100116.44;;;16.87;71.19
37066;BME280;22981;43.080;25.550;2023-08-12T04:11:11;100112.97;;;16.89;71.21
37066;BME280;22981;43.080;25.550;2023-08-12T04:13:39;100116.21;;;16.88;71.26
37066;BME280;22981;43.080;25.550;2023-08-12T04:16:06;100117.25;;;16.87;71.42
37066;BME280;22981;43.080;25.550;2023-08-12T04:18:34;100118.33;;;16.86;71.48
37066;BME280;22981;43.080;25.550;2023-08-12T04:21:01;100120.21;;;16.86;71.58
37066;BME280;22981;43.080;25.550;2023-08-12T04:23:29;100122.66;;;16.87;71.71
37066;BME280;22981;43.080;25.550;2023-08-12T04:25:56;100123.59;;;16.93;71.68
37066;BME280;22981;43.080;25.550;2023-08-12T04:28:24;100123.39;;;16.97;71.69
37066;BME280;22981;43.080;25.550;2023-08-12T04:30:52;100124.23;;;17.00;71.64
37066;BME280;22981;43.080;25.550;2023-08-12T04:33:19;100123.39;;;16.97;71.80
37066;BME280;22981;43.080;25.550;2023-08-12T04:35:47;100118.26;;;16.98;71.92
37066;BME280;22981;43.080;25.550;2023-08-12T04:38:15;100125.58;;;17.00;72.00
37066;BME280;22981;43.080;25.550;2023-08-12T04:40:42;100128.74;;;16.94;72.12
37066;BME280;22981;43.080;25.550;2023-08-12T04:43:10;100128.41;;;16.91;72.22
37066;BME280;22981;43.080;25.550;2023-08-12T04:45:39;100128.07;;;16.87;72.49
37066;BME280;22981;43.080;25.550;2023-08-12T04:48:07;100126.62;;;16.96;72.60
37066;BME280;22981;43.080;25.550;2023-08-12T04:50:34;100129.74;;;17.05;72.43
37066;BME280;22981;43.080;25.550;2023-08-12T04:53:02;100124.89;;;17.07;72.49
37066;BME280;22981;43.080;25.550;2023-08-12T04:55:30;100123.61;;;17.12;72.49
37066;BME280;22981;43.080;25.550;2023-08-12T04:57:58;100127.73;;;17.15;72.58
37066;BME280;22981;43.080;25.550;2023-08-12T05:00:25;100135.10;;;17.19;72.67
37066;BME280;22981;43.080;25.550;2023-08-12T05:02:54;100137.67;;;17.28;72.63
37066;BME280;22981;43.080;25.550;2023-08-12T05:05:22;100137.53;;;17.38;72.50
37066;BME280;22981;43.080;25.550;2023-08-12T05:07:49;100133.25;;;17.39;72.35
37066;BME280;22981;43.080;25.550;2023-08-12T05:10:17;100136.52;;;17.41;72.42
37066;BME280;22981;43.080;25.550;2023-08-12T05:12:45;100135.77;;;17.46;72.42
37066;BME280;22981;43.080;25.550;2023-08-12T05:15:13;100137.28;;;17.56;72.21
37066;BME280;22981;43.080;25.550;2023-08-12T05:17:41;100142.25;;;17.64;72.01
37066;BME280;22981;43.080;25.550;2023-08-12T05:20:09;100140.68;;;17.68;71.96
37066;BME280;22981;43.080;25.550;2023-08-12T05:22:37;100133.28;;;17.78;71.85
37066;BME280;22981;43.080;25.550;2023-08-12T05:25:05;100137.68;;;17.84;71.65
37066;BME280;22981;43.080;25.550;2023-08-12T05:27:32;100136.44;;;17.92;71.53
37066;BME280;22981;43.080;25.550;2023-08-12T05:30:00;100135.52;;;18.06;71.31
37066;BME280;22981;43.080;25.550;2023-08-12T05:32:27;100132.91;;;18.13;71.26
37066;BME280;22981;43.080;25.550;2023-08-12T05:34:55;100131.38;;;18.22;71.09
37066;BME280;22981;43.080;25.550;2023-08-12T05:37:23;100134.18;;;18.30;70.86
37066;BME280;22981;43.080;25.550;2023-08-12T05:39:50;100136.67;;;18.37;70.53
37066;BME280;22981;43.080;25.550;2023-08-12T05:42:18;100136.76;;;18.42;70.53
37066;BME280;22981;43.080;25.550;2023-08-12T05:44:45;100133.05;;;18.50;70.41
37066;BME280;22981;43.080;25.550;2023-08-12T05:47:13;100133.34;;;18.54;70.29
37066;BME280;22981;43.080;25.550;2023-08-12T05:49:41;100133.41;;;18.59;70.18
37066;BME280;22981;43.080;25.550;2023-08-12T05:52:08;100122.03;;;18.62;70.03
37066;BME280;22981;43.080;25.550;2023-08-12T05:54:36;100123.97;;;18.67;70.00
37066;BME280;22981;43.080;25.550;2023-08-12T05:57:04;100119.73;;;18.73;70.00
37066;BME280;22981;43.080;25.550;2023-08-12T05:59:31;100114.66;;;18.82;70.06
37066;BME280;22981;43.080;25.550;2023-08-12T06:01:59;100112.29;;;18.91;70.07
37066;BME280;22981;43.080;25.550;2023-08-12T06:04:26;100121.05;;;19.00;70.01
37066;BME280;22981;43.080;25.550;2023-08-12T06:06:54;100118.67;;;19.09;69.85
37066;BME280;22981;43.080;25.550;2023-08-12T06:09:22;100113.58;;;19.18;69.56
37066;BME280;22981;43.080;25.550;2023-08-12T06:11:49;100108.45;;;19.21;69.44
37066;BME280;22981;43.080;25.550;2023-08-12T06:14:17;100112.31;;;19.28;69.10
37066;BME280;22981;43.080;25.550;2023-08-12T06:16:45;100108.53;;;19.34;68.70
37066;BME280;22981;43.080;25.550;2023-08-12T06:19:12;100106.69;;;19.42;68.50
37066;BME280;22981;43.080;25.550;2023-08-12T06:21:40;100113.83;;;19.54;68.45
37066;BME280;22981;43.080;25.550;2023-08-12T06:24:07;100110.94;;;19.68;68.07
37066;BME280;22981;43.080;25.550;2023-08-12T06:26:35;100102.58;;;19.80;67.68
37066;BME280;22981;43.080;25.550;2023-08-12T06:29:02;100104.25;;;19.88;67.28
37066;BME280;22981;43.080;25.550;2023-08-12T06:31:30;100106.70;;;19.95;66.59
37066;BME280;22981;43.080;25.550;2023-08-12T06:33:58;100104.02;;;20.03;66.15
37066;BME280;22981;43.080;25.550;2023-08-12T06:36:25;100107.05;;;20.09;65.99
37066;BME280;22981;43.080;25.550;2023-08-12T06:38:53;100109.77;;;20.16;65.74
37066;BME280;22981;43.080;25.550;2023-08-12T06:41:21;100107.91;;;20.27;64.83
37066;BME280;22981;43.080;25.550;2023-08-12T06:43:48;100105.75;;;20.37;63.71
37066;BME280;22981;43.080;25.550;2023-08-12T06:46:16;100103.06;;;20.44;63.07
37066;BME280;22981;43.080;25.550;2023-08-12T06:48:43;100096.31;;;20.52;62.37
37066;BME280;22981;43.080;25.550;2023-08-12T06:51:11;100093.59;;;20.62;61.58
37066;BME280;22981;43.080;25.550;2023-08-12T06:53:39;100093.60;;;20.70;60.82
37066;BME280;22981;43.080;25.550;2023-08-12T06:56:07;100091.42;;;20.80;60.58
37066;BME280;22981;43.080;25.550;2023-08-12T06:58:34;100087.87;;;20.89;60.17
37066;BME280;22981;43.080;25.550;2023-08-12T07:01:02;100080.54;;;21.00;59.26
37066;BME280;22981;43.080;25.550;2023-08-12T07:03:29;100082.17;;;21.11;58.93
37066;BME280;22981;43.080;25.550;2023-08-12T07:05:57;100088.41;;;21.24;58.40
37066;BME280;22981;43.080;25.550;2023-08-12T07:08:24;100080.24;;;21.35;58.12
37066;BME280;22981;43.080;25.550;2023-08-12T07:10:53;100082.14;;;21.42;57.55
37066;BME280;22981;43.080;25.550;2023-08-12T07:13:21;100082.94;;;21.50;57.41
37066;BME280;22981;43.080;25.550;2023-08-12T07:15:48;100079.91;;;21.57;57.03
37066;BME280;22981;43.080;25.550;2023-08-12T07:18:16;100080.70;;;21.65;56.64
37066;BME280;22981;43.080;25.550;2023-08-12T07:20:43;100084.50;;;21.71;55.62
37066;BME280;22981;43.080;25.550;2023-08-12T07:23:11;100077.67;;;21.77;55.82
37066;BME280;22981;43.080;25.550;2023-08-12T07:25:39;100077.91;;;21.85;55.07
37066;BME280;22981;43.080;25.550;2023-08-12T07:28:06;100078.13;;;21.91;54.72
37066;BME280;22981;43.080;25.550;2023-08-12T07:30:36;100073.76;;;21.98;54.70
37066;BME280;22981;43.080;25.550;2023-08-12T07:33:04;100073.98;;;22.07;54.27
37066;BME280;22981;43.080;25.550;2023-08-12T07:35:32;100073.95;;;22.17;54.30
37066;BME280;22981;43.080;25.550;2023-08-12T07:38:00;100066.53;;;22.28;54.35
37066;BME280;22981;43.080;25.550;2023-08-12T07:40:27;100066.45;;;22.38;54.04
37066;BME280;22981;43.080;25.550;2023-08-12T07:42:55;100074.05;;;22.46;53.16
37066;BME280;22981;43.080;25.550;2023-08-12T07:45:22;100067.44;;;22.52;53.10
37066;BME280;22981;43.080;25.550;2023-08-12T07:47:50;100070.11;;;22.62;52.69
37066;BME280;22981;43.080;25.550;2023-08-12T07:50:18;100071.13;;;22.69;52.35
37066;BME280;22981;43.080;25.550;2023-08-12T07:52:46;100071.63;;;22.76;51.93
37066;BME280;22981;43.080;25.550;2023-08-12T07:55:14;100064.49;;;22.83;51.26
37066;BME280;22981;43.080;25.550;2023-08-12T07:57:42;100059.22;;;22.94;51.60
37066;BME280;22981;43.080;25.550;2023-08-12T08:00:09;100061.59;;;23.03;50.94
37066;BME280;22981;43.080;25.550;2023-08-12T08:02:38;100054.39;;;23.12;51.15
37066;BME280;22981;43.080;25.550;2023-08-12T08:05:06;100055.13;;;23.20;51.17
37066;BME280;22981;43.080;25.550;2023-08-12T08:07:34;100056.11;;;23.32;50.87
37066;BME280;22981;43.080;25.550;2023-08-12T08:10:02;100053.55;;;23.41;50.79
37066;BME280;22981;43.080;25.550;2023-08-12T08:12:29;100050.67;;;23.54;50.30
37066;BME280;22981;43.080;25.550;2023-08-12T08:14:57;100051.91;;;23.64;50.43
37066;BME280;22981;43.080;25.550;2023-08-12T08:17:25;100051.52;;;23.78;50.12
37066;BME280;22981;43.080;25.550;2023-08-12T08:19:52;100050.54;;;23.90;49.48
37066;BME280;22981;43.080;25.550;2023-08-12T08:22:20;100053.68;;;24.00;49.04
37066;BME280;22981;43.080;25.550;2023-08-12T08:24:47;100049.73;;;24.09;48.74
37066;BME280;22981;43.080;25.550;2023-08-12T08:27:15;100053.34;;;24.23;48.70
37066;BME280;22981;43.080;25.550;2023-08-12T08:29:42;100054.28;;;24.37;48.71
37066;BME280;22981;43.080;25.550;2023-08-12T08:32:10;100050.23;;;24.51;48.24
37066;BME280;22981;43.080;25.550;2023-08-12T08:34:37;100050.14;;;24.56;47.41
37066;BME280;22981;43.080;25.550;2023-08-12T08:37:05;100050.86;;;24.62;47.26
37066;BME280;22981;43.080;25.550;2023-08-12T08:39:33;100048.47;;;24.74;47.36
37066;BME280;22981;43.080;25.550;2023-08-12T08:42:00;100044.05;;;24.92;46.79
37066;BME280;22981;43.080;25.550;2023-08-12T08:44:30;100041.41;;;25.03;46.13
37066;BME280;22981;43.080;25.550;2023-08-12T08:46:59;100043.45;;;25.14;46.15
37066;BME280;22981;43.080;25.550;2023-08-12T08:49:27;100032.98;;;25.30;45.98
37066;BME280;22981;43.080;25.550;2023-08-12T08:51:56;100038.63;;;25.50;45.23
37066;BME280;22981;43.080;25.550;2023-08-12T08:54:24;100036.09;;;25.67;45.27
37066;BME280;22981;43.080;25.550;2023-08-12T08:56:51;100039.72;;;25.79;44.47
37066;BME280;22981;43.080;25.550;2023-08-12T08:59:19;100031.14;;;25.94;44.66
37066;BME280;22981;43.080;25.550;2023-08-12T09:01:49;100032.98;;;26.10;44.20
37066;BME280;22981;43.080;25.550;2023-08-12T09:04:20;100034.56;;;26.25;43.77
37066;BME280;22981;43.080;25.550;2023-08-12T09:06:48;100035.91;;;26.38;43.59
37066;BME280;22981;43.080;25.550;2023-08-12T09:09:19;100029.01;;;26.52;42.89
37066;BME280;22981;43.080;25.550;2023-08-12T09:11:48;100025.08;;;26.56;42.69
37066;BME280;22981;43.080;25.550;2023-08-12T09:14:16;100022.77;;;26.60;42.20
37066;BME280;22981;43.080;25.550;2023-08-12T09:16:44;100019.22;;;26.60;42.33
37066;BME280;22981;43.080;25.550;2023-08-12T09:19:12;100024.68;;;26.71;42.15
37066;BME280;22981;43.080;25.550;2023-08-12T09:21:40;100015.06;;;26.82;41.68
37066;BME280;22981;43.080;25.550;2023-08-12T09:24:08;100016.11;;;26.95;41.69
37066;BME280;22981;43.080;25.550;2023-08-12T09:26:35;100010.41;;;27.03;41.56
37066;BME280;22981;43.080;25.550;2023-08-12T09:29:03;100007.73;;;27.11;41.17
37066;BME280;22981;43.080;25.550;2023-08-12T09:31:31;99999.34;;;27.16;41.11
37066;BME280;22981;43.080;25.550;2023-08-12T09:34:00;100000.52;;;27.24;41.10
37066;BME280;22981;43.080;25.550;2023-08-12T09:36:29;99998.89;;;27.32;40.72
37066;BME280;22981;43.080;25.550;2023-08-12T09:38:57;99991.39;;;27.35;40.45
37066;BME280;22981;43.080;25.550;2023-08-12T09:41:28;99990.50;;;27.28;40.25
37066;BME280;22981;43.080;25.550;2023-08-12T09:43:56;99990.65;;;27.32;40.63
37066;BME280;22981;43.080;25.550;2023-08-12T09:46:24;99988.44;;;27.42;40.57
37066;BME280;22981;43.080;25.550;2023-08-12T09:48:52;99988.22;;;27.50;40.72
37066;BME280;22981;43.080;25.550;2023-08-12T09:51:20;99981.36;;;27.59;40.49
37066;BME280;22981;43.080;25.550;2023-08-12T09:53:49;99980.00;;;27.67;40.23
37066;BME280;22981;43.080;25.550;2023-08-12T09:56:18;99982.46;;;27.78;40.49
37066;BME280;22981;43.080;25.550;2023-08-12T09:58:49;99975.36;;;27.85;40.48
37066;BME280;22981;43.080;25.550;2023-08-12T10:01:18;99970.83;;;27.98;40.24
37066;BME280;22981;43.080;25.550;2023-08-12T10:03:49;99970.33;;;28.05;39.69
37066;BME280;22981;43.080;25.550;2023-08-12T10:06:18;99963.20;;;28.12;39.63
37066;BME280;22981;43.080;25.550;2023-08-12T10:08:46;99959.98;;;28.19;39.59
37066;BME280;22981;43.080;25.550;2023-08-12T10:11:14;99954.70;;;28.20;39.41
37066;BME280;22981;43.080;25.550;2023-08-12T10:13:42;99959.30;;;28.22;39.58
37066;BME280;22981;43.080;25.550;2023-08-12T10:16:11;99955.73;;;28.30;39.43
37066;BME280;22981;43.080;25.550;2023-08-12T10:18:42;99953.57;;;28.38;39.43
37066;BME280;22981;43.080;25.550;2023-08-12T10:21:10;99949.94;;;28.40;38.81
37066;BME280;22981;43.080;25.550;2023-08-12T10:23:38;99948.46;;;28.43;38.84
37066;BME280;22981;43.080;25.550;2023-08-12T10:26:07;99943.34;;;28.48;38.54
37066;BME280;22981;43.080;25.550;2023-08-12T10:28:35;99946.75;;;28.53;38.56
37066;BME280;22981;43.080;25.550;2023-08-12T10:31:06;99935.79;;;28.59;38.47
37066;BME280;22981;43.080;25.550;2023-08-12T10:33:38;99932.54;;;28.66;38.20
37066;BME280;22981;43.080;25.550;2023-08-12T10:36:06;99931.94;;;28.75;38.11
37066;BME280;22981;43.080;25.550;2023-08-12T10:38:34;99935.55;;;28.82;38.02
37066;BME280;22981;43.080;25.550;2023-08-12T10:41:24;99931.56;;;28.85;37.86
37066;BME280;22981;43.080;25.550;2023-08-12T10:43:55;99927.66;;;28.86;37.44
37066;BME280;22981;43.080;25.550;2023-08-12T10:46:33;99922.03;;;28.83;37.52
37066;BME280;22981;43.080;25.550;2023-08-12T10:49:08;99921.22;;;28.82;37.58
37066;BME280;22981;43.080;25.550;2023-08-12T10:51:50;99917.97;;;28.80;38.00
37066;BME280;22981;43.080;25.550;2023-08-12T10:54:26;99919.92;;;28.80;37.86
37066;BME280;22981;43.080;25.550;2023-08-12T10:57:08;99921.45;;;28.83;37.90
37066;BME280;22981;43.080;25.550;2023-08-12T11:02:34;99914.38;;;28.88;37.30
37066;BME280;22981;43.080;25.550;2023-08-12T11:05:10;99914.19;;;28.93;37.46
37066;BME280;22981;43.080;25.550;2023-08-12T11:07:46;99907.25;;;28.96;37.46
37066;BME280;22981;43.080;25.550;2023-08-12T11:10:26;99909.00;;;29.01;37.54
37066;BME280;22981;43.080;25.550;2023-08-12T11:12:55;99906.70;;;29.03;37.08
37066;BME280;22981;43.080;25.550;2023-08-12T11:15:37;99907.63;;;29.01;37.14
37066;BME280;22981;43.080;25.550;2023-08-12T11:18:15;99899.24;;;29.03;37.15
37066;BME280;22981;43.080;25.550;2023-08-12T11:20:45;99897.59;;;28.96;36.70
37066;BME280;22981;43.080;25.550;2023-08-12T11:23:14;99892.91;;;28.88;36.92
37066;BME280;22981;43.080;25.550;2023-08-12T11:25:43;99895.00;;;28.91;37.15
37066;BME280;22981;43.080;25.550;2023-08-12T11:28:11;99891.41;;;28.99;36.67
37066;BME280;22981;43.080;25.550;2023-08-12T11:30:41;99892.04;;;29.05;36.67
37066;BME280;22981;43.080;25.550;2023-08-12T11:33:11;99889.31;;;29.11;36.51
37066;BME280;22981;43.080;25.550;2023-08-12T11:35:40;99888.80;;;29.17;36.72
37066;BME280;22981;43.080;25.550;2023-08-12T11:38:07;99885.63;;;29.22;36.50
37066;BME280;22981;43.080;25.550;2023-08-12T11:40:36;99885.77;;;29.25;36.36
37066;BME280;22981;43.080;25.550;2023-08-12T11:43:03;99883.55;;;29.25;36.19
37066;BME280;22981;43.080;25.550;2023-08-12T11:45:31;99876.17;;;29.16;35.98
37066;BME280;22981;43.080;25.550;2023-08-12T11:47:58;99878.66;;;29.15;36.38
37066;BME280;22981;43.080;25.550;2023-08-12T11:50:27;99876.17;;;29.16;36.64
37066;BME280;22981;43.080;25.550;2023-08-12T11:52:57;99870.91;;;29.24;36.71
37066;BME280;22981;43.080;25.550;2023-08-12T11:55:25;99869.02;;;29.30;36.70
37066;BME280;22981;43.080;25.550;2023-08-12T11:57:53;99866.72;;;29.32;36.88
37066;BME280;22981;43.080;25.550;2023-08-12T12:00:21;99860.19;;;29.37;36.76
37066;BME280;22981;43.080;25.550;2023-08-12T12:02:51;99869.41;;;29.41;36.26
37066;BME280;22981;43.080;25.550;2023-08-12T12:05:25;99867.14;;;29.43;35.98
37066;BME280;22981;43.080;25.550;2023-08-12T12:07:53;99864.38;;;29.43;36.10
37066;BME280;22981;43.080;25.550;2023-08-12T12:10:29;99858.75;;;29.45;35.63
37066;BME280;22981;43.080;25.550;2023-08-12T12:12:57;99860.48;;;29.44;35.14
37066;BME280;22981;43.080;25.550;2023-08-12T12:15:25;99853.44;;;29.40;35.36
37066;BME280;22981;43.080;25.550;2023-08-12T12:17:53;99851.98;;;29.28;35.19
37066;BME280;22981;43.080;25.550;2023-08-12T12:20:21;99850.23;;;29.24;35.59
37066;BME280;22981;43.080;25.550;2023-08-12T12:22:48;99849.66;;;29.24;35.29
37066;BME280;22981;43.080;25.550;2023-08-12T12:25:17;99850.14;;;29.26;35.05
37066;BME280;22981;43.080;25.550;2023-08-12T12:27:47;99850.52;;;29.31;35.08
37066;BME280;22981;43.080;25.550;2023-08-12T12:30:16;99840.08;;;29.36;34.81
37066;BME280;22981;43.080;25.550;2023-08-12T12:32:45;99840.45;;;29.41;34.76
37066;BME280;22981;43.080;25.550;2023-08-12T12:35:13;99841.75;;;29.43;35.11
37066;BME280;22981;43.080;25.550;2023-08-12T12:37:40;99834.98;;;29.47;35.07
37066;BME280;22981;43.080;25.550;2023-08-12T12:40:09;99829.92;;;29.49;35.21
37066;BME280;22981;43.080;25.550;2023-08-12T12:42:37;99835.44;;;29.49;35.30
37066;BME280;22981;43.080;25.550;2023-08-12T12:45:05;99831.22;;;29.52;35.37
37066;BME280;22981;43.080;25.550;2023-08-12T12:47:33;99827.76;;;29.55;34.94
37066;BME280;22981;43.080;25.550;2023-08-12T12:50:00;99820.18;;;29.52;34.50
37066;BME280;22981;43.080;25.550;2023-08-12T12:52:28;99821.30;;;29.51;34.97